sensor_id;sensor_type;location;lat;lon;timestamp;temperature;humidity
68387;DHT22;55338;43.062;25.624;2022-11-21T00:00:10;11.50;99.90
68387;DHT22;55338;43.062;25.624;2022-11-21T00:02:36;11.50;99.90
68387;DHT22;55338;43.062;25.624;2022-11-21T00:05:02;11.60;99.90
68387;DHT22;55338;43.062;25.624;2022-11-21T00:07:28;11.60;99.90
68387;DHT22;55338;43.062;25.624;2022-11-21T00:09:53;11.70;99.90
68387;DHT22;55338;43.062;25.624;2022-11-21T00:12:19;11.80;99.90
68387;DHT22;55338;43.062;25.624;2022-11-21T00:14:45;11.90;99.90
68387;DHT22;55338;43.062;25.624;2022-11-21T00:17:11;12.00;99.90
68387;DHT22;55338;43.062;25.624;2022-11-21T00:19:36;12.10;99.90
68387;DHT22;55338;43.062;25.624;2022-11-21T00:22:02;12.20;99.90
68387;DHT22;55338;43.062;25.624;2022-11-21T00:24:28;12.30;99.90
68387;DHT22;55338;43.062;25.624;2022-11-21T00:26:53;12.40;99.90
68387;DHT22;55338;43.062;25.624;2022-11-21T00:29:19;12.40;99.90
68387;DHT22;55338;43.062;25.624;2022-11-21T00:31:45;12.50;99.90
68387;DHT22;55338;43.062;25.624;2022-11-21T00:34:11;12.60;99.90
68387;DHT22;55338;43.062;25.624;2022-11-21T00:36:36;12.50;99.90
68387;DHT22;55338;43.062;25.624;2022-11-21T00:39:02;12.50;99.90
68387;DHT22;55338;43.062;25.624;2022-11-21T00:41:28;12.60;99.90
68387;DHT22;55338;43.062;25.624;2022-11-21T00:43:54;12.60;99.90
68387;DHT22;55338;43.062;25.624;2022-11-21T00:46:19;12.60;99.90
68387;DHT22;55338;43.062;25.624;2022-11-21T00:48:45;12.60;99.90
68387;DHT22;55338;43.062;25.624;2022-11-21T00:51:11;12.60;99.90
68387;DHT22;55338;43.062;25.624;2022-11-21T00:53:37;12.60;99.90
68387;DHT22;55338;43.062;25.624;2022-11-21T00:56:02;12.70;99.90
68387;DHT22;55338;43.062;25.624;2022-11-21T00:58:28;12.70;99.90
68387;DHT22;55338;43.062;25.624;2022-11-21T01:01:12;12.70;99.90
68387;DHT22;55338;43.062;25.624;2022-11-21T01:03:38;12.80;99.90
68387;DHT22;55338;43.062;25.624;2022-11-21T01:06:09;12.80;99.90
68387;DHT22;55338;43.062;25.624;2022-11-21T01:08:37;12.80;99.90
68387;DHT22;55338;43.062;25.624;2022-11-21T01:11:11;12.80;99.90
68387;DHT22;55338;43.062;25.624;2022-11-21T01:13:37;12.80;99.90
68387;DHT22;55338;43.062;25.624;2022-11-21T01:16:20;12.80;99.90
68387;DHT22;55338;43.062;25.624;2022-11-21T01:18:46;12.90;99.90
68387;DHT22;55338;43.062;25.624;2022-11-21T01:21:26;12.90;99.90
68387;DHT22;55338;43.062;25.624;2022-11-21T01:23:53;12.80;99.90
68387;DHT22;55338;43.062;25.624;2022-11-21T01:26:21;12.80;99.90
68387;DHT22;55338;43.062;25.624;2022-11-21T01:28:48;12.70;99.90
68387;DHT22;55338;43.062;25.624;2022-11-21T01:31:22;12.80;99.90
68387;DHT22;55338;43.062;25.624;2022-11-21T01:33:48;12.80;99.90
68387;DHT22;55338;43.062;25.624;2022-11-21T01:36:25;12.70;99.90
68387;DHT22;55338;43.062;25.624;2022-11-21T01:38:53;12.80;99.90
68387;DHT22;55338;43.062;25.624;2022-11-21T01:41:23;12.90;99.90
68387;DHT22;55338;43.062;25.624;2022-11-21T01:43:49;12.90;99.90
68387;DHT22;55338;43.062;25.624;2022-11-21T01:46:18;12.80;99.90
68387;DHT22;55338;43.062;25.624;2022-11-21T01:49:01;12.80;99.90
68387;DHT22;55338;43.062;25.624;2022-11-21T01:56:25;13.00;99.90
68387;DHT22;55338;43.062;25.624;2022-11-21T01:58:55;13.40;99.90
68387;DHT22;55338;43.062;25.624;2022-11-21T02:01:22;13.90;99.90
68387;DHT22;55338;43.062;25.624;2022-11-21T02:03:48;14.40;99.90
68387;DHT22;55338;43.062;25.624;2022-11-21T02:06:15;14.80;99.90
68387;DHT22;55338;43.062;25.624;2022-11-21T02:08:42;15.30;99.90
68387;DHT22;55338;43.062;25.624;2022-11-21T02:11:21;15.60;99.90
68387;DHT22;55338;43.062;25.624;2022-11-21T02:13:51;15.90;99.90
68387;DHT22;55338;43.062;25.624;2022-11-21T02:16:17;16.10;99.90
68387;DHT22;55338;43.062;25.624;2022-11-21T02:18:43;16.20;99.90
68387;DHT22;55338;43.062;25.624;2022-11-21T02:21:11;16.30;99.90
68387;DHT22;55338;43.062;25.624;2022-11-21T02:23:47;16.50;99.90
68387;DHT22;55338;43.062;25.624;2022-11-21T02:26:15;16.60;99.90
68387;DHT22;55338;43.062;25.624;2022-11-21T02:28:41;16.70;99.90
68387;DHT22;55338;43.062;25.624;2022-11-21T02:31:07;16.90;99.90
68387;DHT22;55338;43.062;25.624;2022-11-21T02:33:33;16.90;99.90
68387;DHT22;55338;43.062;25.624;2022-11-21T02:36:00;16.80;99.90
68387;DHT22;55338;43.062;25.624;2022-11-21T02:38:35;16.90;99.90
68387;DHT22;55338;43.062;25.624;2022-11-21T02:41:15;16.70;99.90
68387;DHT22;55338;43.062;25.624;2022-11-21T02:43:56;16.80;99.90
68387;DHT22;55338;43.062;25.624;2022-11-21T02:46:22;16.70;99.90
68387;DHT22;55338;43.062;25.624;2022-11-21T02:48:48;16.60;99.90
68387;DHT22;55338;43.062;25.624;2022-11-21T02:51:13;16.50;99.90
68387;DHT22;55338;43.062;25.624;2022-11-21T02:53:39;16.40;99.90
68387;DHT22;55338;43.062;25.624;2022-11-21T02:56:05;16.20;99.90
68387;DHT22;55338;43.062;25.624;2022-11-21T02:58:30;16.30;99.90
68387;DHT22;55338;43.062;25.624;2022-11-21T03:00:56;16.20;99.90
68387;DHT22;55338;43.062;25.624;2022-11-21T03:03:22;16.10;99.90
68387;DHT22;55338;43.062;25.624;2022-11-21T03:05:48;16.00;99.90
68387;DHT22;55338;43.062;25.624;2022-11-21T03:08:13;15.80;99.90
68387;DHT22;55338;43.062;25.624;2022-11-21T03:10:39;15.70;99.90
68387;DHT22;55338;43.062;25.624;2022-11-21T03:13:05;15.50;99.90
68387;DHT22;55338;43.062;25.624;2022-11-21T03:15:32;15.30;99.90
68387;DHT22;55338;43.062;25.624;2022-11-21T03:17:59;15.10;99.90
68387;DHT22;55338;43.062;25.624;2022-11-21T03:20:29;14.90;99.90
68387;DHT22;55338;43.062;25.624;2022-11-21T03:22:55;14.70;99.90
68387;DHT22;55338;43.062;25.624;2022-11-21T03:25:21;14.60;99.90
68387;DHT22;55338;43.062;25.624;2022-11-21T03:27:49;14.40;99.90
68387;DHT22;55338;43.062;25.624;2022-11-21T03:30:16;14.30;99.90
68387;DHT22;55338;43.062;25.624;2022-11-21T03:32:41;14.40;99.90
68387;DHT22;55338;43.062;25.624;2022-11-21T03:35:08;14.40;99.90
68387;DHT22;55338;43.062;25.624;2022-11-21T03:37:33;14.40;99.90
68387;DHT22;55338;43.062;25.624;2022-11-21T03:39:59;14.50;99.90
68387;DHT22;55338;43.062;25.624;2022-11-21T03:42:25;14.50;99.90
68387;DHT22;55338;43.062;25.624;2022-11-21T03:44:51;14.60;99.90
68387;DHT22;55338;43.062;25.624;2022-11-21T03:47:16;14.70;99.90
68387;DHT22;55338;43.062;25.624;2022-11-21T03:49:42;14.60;99.90
68387;DHT22;55338;43.062;25.624;2022-11-21T03:52:08;14.50;99.90
68387;DHT22;55338;43.062;25.624;2022-11-21T03:54:33;14.40;99.90
68387;DHT22;55338;43.062;25.624;2022-11-21T03:56:59;14.30;99.90
68387;DHT22;55338;43.062;25.624;2022-11-21T03:59:25;14.20;99.90
68387;DHT22;55338;43.062;25.624;2022-11-21T04:01:51;14.00;99.90
68387;DHT22;55338;43.062;25.624;2022-11-21T04:04:17;13.90;99.90
68387;DHT22;55338;43.062;25.624;2022-11-21T04:06:42;13.90;99.90
68387;DHT22;55338;43.062;25.624;2022-11-21T04:09:08;13.80;99.90
68387;DHT22;55338;43.062;25.624;2022-11-21T04:11:34;13.70;99.90
68387;DHT22;55338;43.062;25.624;2022-11-21T04:14:00;13.60;99.90
68387;DHT22;55338;43.062;25.624;2022-11-21T04:16:25;13.50;99.90
68387;DHT22;55338;43.062;25.624;2022-11-21T04:18:51;13.50;99.90
68387;DHT22;55338;43.062;25.624;2022-11-21T04:21:17;13.40;99.90
68387;DHT22;55338;43.062;25.624;2022-11-21T04:23:43;13.30;99.90
68387;DHT22;55338;43.062;25.624;2022-11-21T04:26:08;13.20;99.90
68387;DHT22;55338;43.062;25.624;2022-11-21T04:28:34;13.10;99.90
68387;DHT22;55338;43.062;25.624;2022-11-21T04:31:07;12.90;99.90
68387;DHT22;55338;43.062;25.624;2022-11-21T04:33:33;12.90;99.90
68387;DHT22;55338;43.062;25.624;2022-11-21T04:35:59;12.70;99.90
68387;DHT22;55338;43.062;25.624;2022-11-21T04:38:26;12.60;99.90
68387;DHT22;55338;43.062;25.624;2022-11-21T04:40:52;12.50;99.90
68387;DHT22;55338;43.062;25.624;2022-11-21T04:43:17;12.40;99.90
68387;DHT22;55338;43.062;25.624;2022-11-21T04:45:43;12.20;99.90
68387;DHT22;55338;43.062;25.624;2022-11-21T04:48:10;12.20;99.90
68387;DHT22;55338;43.062;25.624;2022-11-21T04:50:36;12.20;99.90
68387;DHT22;55338;43.062;25.624;2022-11-21T04:53:02;12.10;99.90
68387;DHT22;55338;43.062;25.624;2022-11-21T04:55:30;12.00;99.90
68387;DHT22;55338;43.062;25.624;2022-11-21T04:57:56;11.90;99.90
68387;DHT22;55338;43.062;25.624;2022-11-21T05:00:22;11.90;99.90
68387;DHT22;55338;43.062;25.624;2022-11-21T05:02:48;11.80;99.90
68387;DHT22;55338;43.062;25.624;2022-11-21T05:05:14;11.70;99.90
68387;DHT22;55338;43.062;25.624;2022-11-21T05:07:40;11.70;99.90
68387;DHT22;55338;43.062;25.624;2022-11-21T05:10:25;11.60;99.90
68387;DHT22;55338;43.062;25.624;2022-11-21T05:13:00;11.60;99.90
68387;DHT22;55338;43.062;25.624;2022-11-21T05:15:45;11.50;99.90
68387;DHT22;55338;43.062;25.624;2022-11-21T05:18:12;11.40;99.90
68387;DHT22;55338;43.062;25.624;2022-11-21T05:20:37;11.30;99.90
68387;DHT22;55338;43.062;25.624;2022-11-21T05:23:03;11.40;99.90
68387;DHT22;55338;43.062;25.624;2022-11-21T05:25:29;11.40;99.90
68387;DHT22;55338;43.062;25.624;2022-11-21T05:27:55;11.30;99.90
68387;DHT22;55338;43.062;25.624;2022-11-21T05:30:21;11.30;99.90
68387;DHT22;55338;43.062;25.624;2022-11-21T05:32:47;11.40;99.90
68387;DHT22;55338;43.062;25.624;2022-11-21T05:35:12;11.30;99.90
68387;DHT22;55338;43.062;25.624;2022-11-21T05:37:38;11.30;99.90
68387;DHT22;55338;43.062;25.624;2022-11-21T05:40:04;11.30;99.90
68387;DHT22;55338;43.062;25.624;2022-11-21T05:42:30;11.40;99.90
68387;DHT22;55338;43.062;25.624;2022-11-21T05:45:14;11.40;99.90
68387;DHT22;55338;43.062;25.624;2022-11-21T05:47:41;11.40;99.90
68387;DHT22;55338;43.062;25.624;2022-11-21T05:50:07;11.30;99.90
68387;DHT22;55338;43.062;25.624;2022-11-21T05:52:33;11.40;99.90
68387;DHT22;55338;43.062;25.624;2022-11-21T05:54:58;11.30;99.90
68387;DHT22;55338;43.062;25.624;2022-11-21T05:57:24;11.40;99.90
68387;DHT22;55338;43.062;25.624;2022-11-21T05:59:50;11.30;99.90
68387;DHT22;55338;43.062;25.624;2022-11-21T06:02:16;11.40;99.90
68387;DHT22;55338;43.062;25.624;2022-11-21T06:05:00;11.50;99.90
68387;DHT22;55338;43.062;25.624;2022-11-21T06:07:26;11.60;99.90
68387;DHT22;55338;43.062;25.624;2022-11-21T06:09:52;11.70;99.90
68387;DHT22;55338;43.062;25.624;2022-11-21T06:12:21;11.60;99.90
68387;DHT22;55338;43.062;25.624;2022-11-21T06:14:48;11.70;99.90
68387;DHT22;55338;43.062;25.624;2022-11-21T06:17:14;11.90;99.90
68387;DHT22;55338;43.062;25.624;2022-11-21T06:19:40;12.00;99.90
68387;DHT22;55338;43.062;25.624;2022-11-21T06:22:06;12.00;99.90
68387;DHT22;55338;43.062;25.624;2022-11-21T06:24:36;12.20;99.90
68387;DHT22;55338;43.062;25.624;2022-11-21T06:27:02;12.30;99.90
68387;DHT22;55338;43.062;25.624;2022-11-21T06:29:32;12.60;99.90
68387;DHT22;55338;43.062;25.624;2022-11-21T06:32:00;12.80;99.90
68387;DHT22;55338;43.062;25.624;2022-11-21T06:34:31;13.20;99.90
68387;DHT22;55338;43.062;25.624;2022-11-21T06:36:59;13.70;99.90
68387;DHT22;55338;43.062;25.624;2022-11-21T06:39:25;14.10;99.90
68387;DHT22;55338;43.062;25.624;2022-11-21T06:41:51;14.30;99.90
68387;DHT22;55338;43.062;25.624;2022-11-21T06:44:20;14.80;99.90
68387;DHT22;55338;43.062;25.624;2022-11-21T06:46:47;15.30;99.90
68387;DHT22;55338;43.062;25.624;2022-11-21T06:49:21;15.60;99.90
68387;DHT22;55338;43.062;25.624;2022-11-21T06:51:47;15.80;99.90
68387;DHT22;55338;43.062;25.624;2022-11-21T06:54:13;16.10;99.90
68387;DHT22;55338;43.062;25.624;2022-11-21T06:56:39;16.50;99.90
68387;DHT22;55338;43.062;25.624;2022-11-21T06:59:04;16.90;99.90
68387;DHT22;55338;43.062;25.624;2022-11-21T07:01:30;17.30;99.90
68387;DHT22;55338;43.062;25.624;2022-11-21T07:03:56;17.60;99.90
68387;DHT22;55338;43.062;25.624;2022-11-21T07:06:22;18.10;99.90
68387;DHT22;55338;43.062;25.624;2022-11-21T07:08:51;18.50;99.90
68387;DHT22;55338;43.062;25.624;2022-11-21T07:11:17;18.60;98.80
68387;DHT22;55338;43.062;25.624;2022-11-21T07:13:43;19.00;96.00
68387;DHT22;55338;43.062;25.624;2022-11-21T07:16:11;19.20;94.80
68387;DHT22;55338;43.062;25.624;2022-11-21T07:18:39;19.70;93.30
68387;DHT22;55338;43.062;25.624;2022-11-21T07:21:10;20.10;89.70
68387;DHT22;55338;43.062;25.624;2022-11-21T07:23:37;20.30;88.20
68387;DHT22;55338;43.062;25.624;2022-11-21T07:26:05;20.20;88.10
68387;DHT22;55338;43.062;25.624;2022-11-21T07:28:32;20.20;88.30
68387;DHT22;55338;43.062;25.624;2022-11-21T07:30:59;20.00;86.50
68387;DHT22;55338;43.062;25.624;2022-11-21T07:33:39;20.20;84.40
68387;DHT22;55338;43.062;25.624;2022-11-21T07:36:07;20.10;84.60
68387;DHT22;55338;43.062;25.624;2022-11-21T07:38:34;20.20;83.90
68387;DHT22;55338;43.062;25.624;2022-11-21T07:41:01;20.40;83.40
68387;DHT22;55338;43.062;25.624;2022-11-21T07:43:28;20.20;82.40
68387;DHT22;55338;43.062;25.624;2022-11-21T07:45:55;19.50;84.90
68387;DHT22;55338;43.062;25.624;2022-11-21T07:48:21;18.90;87.10
68387;DHT22;55338;43.062;25.624;2022-11-21T07:50:47;18.30;89.70
68387;DHT22;55338;43.062;25.624;2022-11-21T07:53:16;17.50;92.70
68387;DHT22;55338;43.062;25.624;2022-11-21T07:55:57;16.90;94.60
68387;DHT22;55338;43.062;25.624;2022-11-21T07:59:03;16.40;97.50
68387;DHT22;55338;43.062;25.624;2022-11-21T08:01:30;15.80;99.90
68387;DHT22;55338;43.062;25.624;2022-11-21T08:03:56;15.60;99.90
68387;DHT22;55338;43.062;25.624;2022-11-21T08:06:22;15.40;99.90
68387;DHT22;55338;43.062;25.624;2022-11-21T08:08:52;15.20;99.90
68387;DHT22;55338;43.062;25.624;2022-11-21T08:11:18;15.10;99.90
68387;DHT22;55338;43.062;25.624;2022-11-21T08:13:44;15.00;99.90
68387;DHT22;55338;43.062;25.624;2022-11-21T08:16:10;14.80;99.90
68387;DHT22;55338;43.062;25.624;2022-11-21T08:18:36;14.80;99.90
68387;DHT22;55338;43.062;25.624;2022-11-21T08:21:02;14.80;99.90
68387;DHT22;55338;43.062;25.624;2022-11-21T08:23:29;14.80;99.90
68387;DHT22;55338;43.062;25.624;2022-11-21T08:25:55;14.60;99.90
68387;DHT22;55338;43.062;25.624;2022-11-21T08:28:20;14.70;99.90
68387;DHT22;55338;43.062;25.624;2022-11-21T08:30:46;14.90;99.90
68387;DHT22;55338;43.062;25.624;2022-11-21T08:33:12;14.90;99.90
68387;DHT22;55338;43.062;25.624;2022-11-21T08:35:38;15.00;99.90
68387;DHT22;55338;43.062;25.624;2022-11-21T08:38:04;15.20;99.90
68387;DHT22;55338;43.062;25.624;2022-11-21T08:40:31;15.00;99.90
68387;DHT22;55338;43.062;25.624;2022-11-21T08:42:58;15.00;99.90
68387;DHT22;55338;43.062;25.624;2022-11-21T08:45:24;14.90;99.90
68387;DHT22;55338;43.062;25.624;2022-11-21T08:47:51;14.80;99.90
68387;DHT22;55338;43.062;25.624;2022-11-21T08:50:17;14.50;99.90
68387;DHT22;55338;43.062;25.624;2022-11-21T08:52:43;14.50;99.90
68387;DHT22;55338;43.062;25.624;2022-11-21T08:55:09;14.40;99.90
68387;DHT22;55338;43.062;25.624;2022-11-21T08:57:39;14.30;99.90
68387;DHT22;55338;43.062;25.624;2022-11-21T09:00:06;14.20;99.90
68387;DHT22;55338;43.062;25.624;2022-11-21T09:02:32;14.10;99.90
68387;DHT22;55338;43.062;25.624;2022-11-21T09:04:58;14.00;99.90
68387;DHT22;55338;43.062;25.624;2022-11-21T09:07:24;14.10;99.90
68387;DHT22;55338;43.062;25.624;2022-11-21T09:09:50;14.10;99.90
68387;DHT22;55338;43.062;25.624;2022-11-21T09:12:16;14.10;99.90
68387;DHT22;55338;43.062;25.624;2022-11-21T09:14:42;14.00;99.90
68387;DHT22;55338;43.062;25.624;2022-11-21T09:17:26;13.90;99.90
68387;DHT22;55338;43.062;25.624;2022-11-21T09:20:10;13.90;99.90
68387;DHT22;55338;43.062;25.624;2022-11-21T09:22:36;13.80;99.90
68387;DHT22;55338;43.062;25.624;2022-11-21T09:25:02;13.70;99.90
68387;DHT22;55338;43.062;25.624;2022-11-21T09:27:29;13.70;99.90
68387;DHT22;55338;43.062;25.624;2022-11-21T09:29:55;13.80;99.90
68387;DHT22;55338;43.062;25.624;2022-11-21T09:32:21;13.80;99.90
68387;DHT22;55338;43.062;25.624;2022-11-21T09:34:47;13.80;99.90
68387;DHT22;55338;43.062;25.624;2022-11-21T09:37:13;13.80;99.90
68387;DHT22;55338;43.062;25.624;2022-11-21T09:39:39;13.80;99.90
68387;DHT22;55338;43.062;25.624;2022-11-21T09:45:44;14.00;99.90
68387;DHT22;55338;43.062;25.624;2022-11-21T09:51:02;13.90;99.90
68387;DHT22;55338;43.062;25.624;2022-11-21T09:56:13;13.70;99.90
68387;DHT22;55338;43.062;25.624;2022-11-21T09:58:43;13.80;99.90
68387;DHT22;55338;43.062;25.624;2022-11-21T10:01:12;13.80;99.90
68387;DHT22;55338;43.062;25.624;2022-11-21T10:03:48;13.70;99.90
68387;DHT22;55338;43.062;25.624;2022-11-21T10:06:20;13.50;99.90
68387;DHT22;55338;43.062;25.624;2022-11-21T10:09:07;13.40;99.90
68387;DHT22;55338;43.062;25.624;2022-11-21T10:25:37;13.00;99.90
68387;DHT22;55338;43.062;25.624;2022-11-21T10:30:29;13.10;99.90
68387;DHT22;55338;43.062;25.624;2022-11-21T10:33:01;13.10;99.90
68387;DHT22;55338;43.062;25.624;2022-11-21T10:35:42;13.10;99.90
68387;DHT22;55338;43.062;25.624;2022-11-21T10:38:21;13.20;99.90
68387;DHT22;55338;43.062;25.624;2022-11-21T10:40:59;13.10;99.90
68387;DHT22;55338;43.062;25.624;2022-11-21T10:43:49;13.20;99.90
68387;DHT22;55338;43.062;25.624;2022-11-21T10:46:34;13.10;99.90
68387;DHT22;55338;43.062;25.624;2022-11-21T10:49:02;13.00;99.90
68387;DHT22;55338;43.062;25.624;2022-11-21T10:51:52;13.10;99.90
68387;DHT22;55338;43.062;25.624;2022-11-21T10:54:21;13.10;99.90
68387;DHT22;55338;43.062;25.624;2022-11-21T10:57:17;13.30;99.90
68387;DHT22;55338;43.062;25.624;2022-11-21T11:02:28;13.30;99.90
68387;DHT22;55338;43.062;25.624;2022-11-21T11:05:17;13.30;99.90
68387;DHT22;55338;43.062;25.624;2022-11-21T11:08:07;13.20;99.90
68387;DHT22;55338;43.062;25.624;2022-11-21T11:10:36;13.20;99.90
68387;DHT22;55338;43.062;25.624;2022-11-21T11:13:10;13.20;99.90
68387;DHT22;55338;43.062;25.624;2022-11-21T11:21:17;13.10;99.90
68387;DHT22;55338;43.062;25.624;2022-11-21T11:23:44;13.10;99.90
68387;DHT22;55338;43.062;25.624;2022-11-21T11:26:24;13.20;99.90
68387;DHT22;55338;43.062;25.624;2022-11-21T11:28:53;13.10;99.90
68387;DHT22;55338;43.062;25.624;2022-11-21T11:31:51;13.00;99.90
68387;DHT22;55338;43.062;25.624;2022-11-21T11:34:19;13.00;99.90
68387;DHT22;55338;43.062;25.624;2022-11-21T11:37:11;13.00;99.90
68387;DHT22;55338;43.062;25.624;2022-11-21T11:46:26;12.90;99.90
68387;DHT22;55338;43.062;25.624;2022-11-21T11:49:19;12.90;99.90
68387;DHT22;55338;43.062;25.624;2022-11-21T11:51:52;12.90;99.90
68387;DHT22;55338;43.062;25.624;2022-11-21T11:54:46;12.80;99.90
68387;DHT22;55338;43.062;25.624;2022-11-21T11:57:13;12.80;99.90
68387;DHT22;55338;43.062;25.624;2022-11-21T11:59:45;12.90;99.90
68387;DHT22;55338;43.062;25.624;2022-11-21T12:02:27;12.90;99.90
68387;DHT22;55338;43.062;25.624;2022-11-21T12:05:02;13.00;99.90
68387;DHT22;55338;43.062;25.624;2022-11-21T12:07:38;13.20;99.90
68387;DHT22;55338;43.062;25.624;2022-11-21T12:10:12;13.40;99.90
68387;DHT22;55338;43.062;25.624;2022-11-21T12:12:54;13.50;99.90
68387;DHT22;55338;43.062;25.624;2022-11-21T12:15:45;13.60;99.90
68387;DHT22;55338;43.062;25.624;2022-11-21T12:23:29;13.40;99.90
68387;DHT22;55338;43.062;25.624;2022-11-21T12:26:12;13.40;99.90
68387;DHT22;55338;43.062;25.624;2022-11-21T12:31:45;13.50;99.90
68387;DHT22;55338;43.062;25.624;2022-11-21T12:40:10;13.30;99.90
68387;DHT22;55338;43.062;25.624;2022-11-21T12:43:06;13.30;99.90
68387;DHT22;55338;43.062;25.624;2022-11-21T12:57:11;13.00;99.90
68387;DHT22;55338;43.062;25.624;2022-11-21T13:04:56;12.80;99.90
68387;DHT22;55338;43.062;25.624;2022-11-21T13:07:24;12.70;99.90
68387;DHT22;55338;43.062;25.624;2022-11-21T13:09:54;12.70;99.90
68387;DHT22;55338;43.062;25.624;2022-11-21T13:15:15;12.70;99.90
68387;DHT22;55338;43.062;25.624;2022-11-21T13:17:50;12.70;99.90
68387;DHT22;55338;43.062;25.624;2022-11-21T13:20:30;12.70;99.90
68387;DHT22;55338;43.062;25.624;2022-11-21T13:23:00;12.70;99.90
68387;DHT22;55338;43.062;25.624;2022-11-21T13:30:47;12.60;99.90
68387;DHT22;55338;43.062;25.624;2022-11-21T13:46:58;12.20;99.90
68387;DHT22;55338;43.062;25.624;2022-11-21T14:08:21;11.80;99.90
68387;DHT22;55338;43.062;25.624;2022-11-21T14:10:50;11.80;99.90
68387;DHT22;55338;43.062;25.624;2022-11-21T14:13:21;11.70;99.90
68387;DHT22;55338;43.062;25.624;2022-11-21T14:16:13;11.70;99.90
68387;DHT22;55338;43.062;25.624;2022-11-21T14:18:43;11.70;99.90
68387;DHT22;55338;43.062;25.624;2022-11-21T14:21:25;11.70;99.90
68387;DHT22;55338;43.062;25.624;2022-11-21T14:23:54;11.60;99.90
68387;DHT22;55338;43.062;25.624;2022-11-21T14:26:22;11.60;99.90
68387;DHT22;55338;43.062;25.624;2022-11-21T14:28:50;11.60;99.90
68387;DHT22;55338;43.062;25.624;2022-11-21T14:31:16;11.60;99.90
68387;DHT22;55338;43.062;25.624;2022-11-21T14:33:44;11.50;99.90
68387;DHT22;55338;43.062;25.624;2022-11-21T14:36:22;11.50;99.90
68387;DHT22;55338;43.062;25.624;2022-11-21T14:39:04;11.50;99.90
68387;DHT22;55338;43.062;25.624;2022-11-21T14:41:36;11.40;99.90
68387;DHT22;55338;43.062;25.624;2022-11-21T14:44:04;11.30;99.90
68387;DHT22;55338;43.062;25.624;2022-11-21T14:46:38;11.30;99.90
68387;DHT22;55338;43.062;25.624;2022-11-21T14:51:44;11.20;99.90
68387;DHT22;55338;43.062;25.624;2022-11-21T14:54:19;11.20;99.90
68387;DHT22;55338;43.062;25.624;2022-11-21T14:56:50;11.10;99.90
68387;DHT22;55338;43.062;25.624;2022-11-21T14:59:39;11.10;99.90
68387;DHT22;55338;43.062;25.624;2022-11-21T15:02:26;11.00;99.90
68387;DHT22;55338;43.062;25.624;2022-11-21T15:04:59;11.00;99.90
68387;DHT22;55338;43.062;25.624;2022-11-21T15:07:26;11.00;99.90
68387;DHT22;55338;43.062;25.624;2022-11-21T15:09:53;11.00;99.90
68387;DHT22;55338;43.062;25.624;2022-11-21T15:12:45;11.00;99.90
68387;DHT22;55338;43.062;25.624;2022-11-21T15:15:40;11.00;99.90
68387;DHT22;55338;43.062;25.624;2022-11-21T15:18:21;11.00;99.90
68387;DHT22;55338;43.062;25.624;2022-11-21T15:20:49;10.90;99.90
68387;DHT22;55338;43.062;25.624;2022-11-21T15:25:50;10.80;99.90
68387;DHT22;55338;43.062;25.624;2022-11-21T15:28:16;10.80;99.90
68387;DHT22;55338;43.062;25.624;2022-11-21T15:30:43;10.80;99.90
68387;DHT22;55338;43.062;25.624;2022-11-21T15:33:13;10.70;99.90
68387;DHT22;55338;43.062;25.624;2022-11-21T15:38:49;10.80;99.90
68387;DHT22;55338;43.062;25.624;2022-11-21T15:43:48;10.60;99.90
68387;DHT22;55338;43.062;25.624;2022-11-21T15:46:15;10.60;99.90
68387;DHT22;55338;43.062;25.624;2022-11-21T15:48:44;10.50;99.90
68387;DHT22;55338;43.062;25.624;2022-11-21T15:51:10;10.50;99.90
68387;DHT22;55338;43.062;25.624;2022-11-21T15:53:37;10.50;99.90
68387;DHT22;55338;43.062;25.624;2022-11-21T15:56:04;10.40;99.90
68387;DHT22;55338;43.062;25.624;2022-11-21T15:58:30;10.40;99.90
68387;DHT22;55338;43.062;25.624;2022-11-21T16:00:56;10.40;99.90
68387;DHT22;55338;43.062;25.624;2022-11-21T16:03:22;10.40;99.90
68387;DHT22;55338;43.062;25.624;2022-11-21T16:05:47;10.40;99.90
68387;DHT22;55338;43.062;25.624;2022-11-21T16:08:13;10.30;99.90
68387;DHT22;55338;43.062;25.624;2022-11-21T16:10:39;10.30;99.90
68387;DHT22;55338;43.062;25.624;2022-11-21T16:13:05;10.30;99.90
68387;DHT22;55338;43.062;25.624;2022-11-21T16:15:30;10.40;99.90
68387;DHT22;55338;43.062;25.624;2022-11-21T16:17:56;10.40;99.90
68387;DHT22;55338;43.062;25.624;2022-11-21T16:20:22;10.40;99.90
68387;DHT22;55338;43.062;25.624;2022-11-21T16:22:48;10.40;99.90
68387;DHT22;55338;43.062;25.624;2022-11-21T16:25:14;10.40;99.90
68387;DHT22;55338;43.062;25.624;2022-11-21T16:27:40;10.30;99.90
68387;DHT22;55338;43.062;25.624;2022-11-21T16:30:06;10.40;99.90
68387;DHT22;55338;43.062;25.624;2022-11-21T16:32:32;10.40;99.90
68387;DHT22;55338;43.062;25.624;2022-11-21T16:34:58;10.40;99.90
68387;DHT22;55338;43.062;25.624;2022-11-21T16:37:24;10.30;99.90
68387;DHT22;55338;43.062;25.624;2022-11-21T16:39:50;10.30;99.90
68387;DHT22;55338;43.062;25.624;2022-11-21T16:42:18;10.30;99.90
68387;DHT22;55338;43.062;25.624;2022-11-21T16:44:44;10.30;99.90
68387;DHT22;55338;43.062;25.624;2022-11-21T16:47:11;10.30;99.90
68387;DHT22;55338;43.062;25.624;2022-11-21T16:49:37;10.30;99.90
68387;DHT22;55338;43.062;25.624;2022-11-21T16:52:12;10.30;99.90
68387;DHT22;55338;43.062;25.624;2022-11-21T16:54:39;10.20;99.90
68387;DHT22;55338;43.062;25.624;2022-11-21T16:57:05;10.20;99.90
68387;DHT22;55338;43.062;25.624;2022-11-21T16:59:31;10.20;99.90
68387;DHT22;55338;43.062;25.624;2022-11-21T17:01:57;10.20;99.90
68387;DHT22;55338;43.062;25.624;2022-11-21T17:04:23;10.20;99.90
68387;DHT22;55338;43.062;25.624;2022-11-21T17:06:49;10.20;99.90
68387;DHT22;55338;43.062;25.624;2022-11-21T17:09:15;10.10;99.90
68387;DHT22;55338;43.062;25.624;2022-11-21T17:11:41;10.10;99.90
68387;DHT22;55338;43.062;25.624;2022-11-21T17:14:10;10.00;99.90
68387;DHT22;55338;43.062;25.624;2022-11-21T17:16:36;10.00;99.90
68387;DHT22;55338;43.062;25.624;2022-11-21T17:19:03;10.10;99.90
68387;DHT22;55338;43.062;25.624;2022-11-21T17:21:30;10.00;99.90
68387;DHT22;55338;43.062;25.624;2022-11-21T17:23:56;10.00;99.90
68387;DHT22;55338;43.062;25.624;2022-11-21T17:26:26;10.00;99.90
68387;DHT22;55338;43.062;25.624;2022-11-21T17:28:57;10.00;99.90
68387;DHT22;55338;43.062;25.624;2022-11-21T17:31:24;9.90;99.90
68387;DHT22;55338;43.062;25.624;2022-11-21T17:33:50;9.90;99.90
68387;DHT22;55338;43.062;25.624;2022-11-21T17:36:18;9.90;99.90